createdAt,value
2023-01-31T00:00:45.196Z,99985.31
2023-01-31T00:03:31.552Z,99993.81
2023-01-31T00:06:20.586Z,100000.66
2023-01-31T00:09:08.863Z,99961.94
2023-01-31T00:11:54.977Z,99970.31
2023-01-31T00:14:41.330Z,99958.47
2023-01-31T00:17:27.635Z,99971.66
2023-01-31T00:20:13.888Z,99949.00
2023-01-31T00:23:00.140Z,99979.28
2023-01-31T00:25:46.611Z,99974.47
2023-01-31T00:28:32.865Z,99945.97
2023-01-31T00:31:20.345Z,99985.94
2023-01-31T00:34:08.715Z,99980.88
2023-01-31T00:36:54.988Z,99978.91
2023-01-31T00:39:41.469Z,99988.88
2023-01-31T00:42:28.273Z,99937.88
2023-01-31T00:45:15.273Z,99971.88
2023-01-31T00:48:01.873Z,99984.59
2023-01-31T00:50:48.399Z,99970.38
2023-01-31T00:53:35.943Z,99997.00
2023-01-31T00:56:24.229Z,99995.44
2023-01-31T00:59:11.338Z,99980.34
2023-01-31T01:01:57.616Z,99953.22
2023-01-31T01:04:43.843Z,99987.19
2023-01-31T01:07:31.831Z,99979.91
2023-01-31T01:10:19.828Z,99991.88
2023-01-31T01:13:06.360Z,99975.16
2023-01-31T01:15:52.753Z,99947.75
2023-01-31T01:18:39.607Z,99991.59
2023-01-31T01:21:28.511Z,99991.66
2023-01-31T01:24:18.036Z,99988.59
2023-01-31T01:27:05.085Z,99982.00
2023-01-31T01:29:51.253Z,99987.00
2023-01-31T01:32:38.026Z,99985.63
2023-01-31T01:35:24.443Z,99993.25
2023-01-31T01:38:10.784Z,99994.25
2023-01-31T01:40:57.347Z,99991.50
2023-01-31T01:43:47.357Z,99997.78
2023-01-31T01:46:43.742Z,99994.56
2023-01-31T01:49:37.175Z,99969.69
2023-01-31T01:52:26.219Z,99967.28
2023-01-31T01:55:29.217Z,100002.19
2023-01-31T01:58:33.949Z,100004.13
2023-01-31T02:01:21.095Z,99902.66
2023-01-31T02:04:12.158Z,99966.47
2023-01-31T02:07:00.328Z,99955.16
2023-01-31T02:09:46.860Z,99992.34
2023-01-31T02:12:34.455Z,99957.00
2023-01-31T02:15:22.226Z,99993.91
2023-01-31T02:18:09.599Z,99995.44
2023-01-31T02:21:12.149Z,100009.19
2023-01-31T02:24:22.762Z,100022.00
2023-01-31T02:27:42.121Z,99971.19
2023-01-31T02:30:28.918Z,100011.38
2023-01-31T02:33:29.978Z,99973.28
2023-01-31T02:40:22.207Z,100025.84
2023-01-31T02:43:55.239Z,100015.47
2023-01-31T02:51:57.678Z,100043.25
2023-01-31T02:55:35.151Z,100034.78
2023-01-31T02:58:25.079Z,100029.59
2023-01-31T03:01:16.338Z,99970.31
2023-01-31T03:04:08.514Z,100022.28
2023-01-31T03:11:14.789Z,100042.13
2023-01-31T03:14:31.846Z,100009.06
2023-01-31T03:17:34.800Z,100037.63
2023-01-31T03:20:30.190Z,100002.75
2023-01-31T03:23:22.652Z,100012.16
2023-01-31T03:26:10.125Z,100012.81
2023-01-31T03:28:59.686Z,100039.81
2023-01-31T03:31:53.411Z,100043.09
2023-01-31T03:34:40.529Z,100019.41
2023-01-31T03:37:59.884Z,100041.00
2023-01-31T03:41:06.006Z,100005.41
2023-01-31T03:44:06.531Z,100058.06
2023-01-31T03:47:00.484Z,100031.44
2023-01-31T03:49:50.413Z,100041.13
2023-01-31T03:52:41.170Z,100060.09
2023-01-31T03:55:37.385Z,100029.03
2023-01-31T03:58:30.433Z,100040.78
2023-01-31T04:01:20.363Z,100045.31
2023-01-31T04:04:37.130Z,100042.72
2023-01-31T04:07:24.093Z,100065.25
2023-01-31T04:10:17.743Z,100078.34
2023-01-31T04:13:04.083Z,100038.81
2023-01-31T04:15:50.574Z,100044.88
2023-01-31T04:18:38.626Z,100047.56
2023-01-31T04:21:25.069Z,100050.88
2023-01-31T04:24:11.834Z,100058.78
2023-01-31T04:26:58.357Z,100049.59
2023-01-31T04:29:44.811Z,100072.34
2023-01-31T04:32:31.260Z,100048.28
2023-01-31T04:35:18.112Z,100079.16
2023-01-31T04:38:04.601Z,100069.91
2023-01-31T04:40:51.155Z,100056.91
2023-01-31T04:43:37.461Z,100073.97
2023-01-31T04:46:23.875Z,100085.97
2023-01-31T04:49:10.303Z,100052.38
2023-01-31T04:51:56.783Z,100064.34
2023-01-31T04:54:43.230Z,100073.91
2023-01-31T04:57:29.501Z,100042.94
2023-01-31T05:00:16.081Z,100049.06
2023-01-31T05:03:02.457Z,100048.59
2023-01-31T05:05:49.750Z,100061.47
2023-01-31T05:08:36.524Z,100018.16
2023-01-31T05:11:22.960Z,100020.13
2023-01-31T05:14:09.652Z,100024.59
2023-01-31T05:16:55.755Z,100048.97
2023-01-31T05:19:43.775Z,100051.56
2023-01-31T05:22:30.309Z,100035.25
2023-01-31T05:25:16.869Z,100034.06
2023-01-31T05:28:04.605Z,100033.81
2023-01-31T05:30:51.008Z,100043.78
2023-01-31T05:33:37.621Z,100029.34
2023-01-31T05:36:24.063Z,100041.06
2023-01-31T05:39:10.382Z,100035.13
2023-01-31T05:41:56.865Z,100025.47
2023-01-31T05:44:43.091Z,99982.25
2023-01-31T05:47:29.525Z,100037.00
2023-01-31T05:50:17.170Z,100059.22
2023-01-31T05:53:03.783Z,100067.81
2023-01-31T05:55:50.192Z,100026.41
2023-01-31T05:58:36.730Z,100064.31
2023-01-31T06:01:26.355Z,100074.63
2023-01-31T06:04:12.716Z,100059.41
2023-01-31T06:06:59.173Z,100049.50
2023-01-31T06:09:45.351Z,100072.59
2023-01-31T06:12:32.003Z,100075.91
2023-01-31T06:15:18.830Z,100074.91
2023-01-31T06:18:05.505Z,100080.59
2023-01-31T06:20:53.081Z,100086.97
2023-01-31T06:23:40.314Z,100089.13
2023-01-31T06:26:26.514Z,100061.00
2023-01-31T06:29:12.962Z,100072.38
2023-01-31T06:31:59.228Z,100086.47
2023-01-31T06:34:45.753Z,100071.84
2023-01-31T06:37:31.985Z,100077.81
2023-01-31T06:40:18.319Z,100046.66
2023-01-31T06:43:04.826Z,100089.03
2023-01-31T06:45:51.361Z,100090.59
2023-01-31T06:48:37.801Z,100052.38
2023-01-31T06:51:24.211Z,100051.94
2023-01-31T06:54:10.674Z,100070.66
2023-01-31T06:56:57.125Z,100067.03
2023-01-31T06:59:43.661Z,100059.22
2023-01-31T07:02:30.376Z,100078.50
2023-01-31T07:05:16.777Z,100075.16
2023-01-31T07:08:03.421Z,100089.97
2023-01-31T07:10:49.879Z,100103.22
2023-01-31T07:13:36.079Z,100111.91
2023-01-31T07:16:25.375Z,100084.94
2023-01-31T07:19:11.913Z,100046.22
2023-01-31T07:21:58.467Z,100105.03
2023-01-31T07:24:44.918Z,100091.31
2023-01-31T07:27:31.270Z,100080.66
2023-01-31T07:30:18.524Z,100113.47
2023-01-31T07:33:05.587Z,100075.53
2023-01-31T07:35:51.955Z,100123.88
2023-01-31T07:38:38.620Z,100117.50
2023-01-31T07:41:25.332Z,100115.53
2023-01-31T07:44:11.844Z,100126.44
2023-01-31T07:46:58.192Z,100119.03
2023-01-31T07:49:44.280Z,100119.88
2023-01-31T07:52:32.062Z,100112.91
2023-01-31T07:55:18.908Z,100127.03
2023-01-31T07:58:05.307Z,100098.78
2023-01-31T08:01:12.303Z,100144.31
2023-01-31T08:04:10.678Z,100122.22
2023-01-31T08:07:06.896Z,100133.00
2023-01-31T08:09:53.627Z,100111.25
2023-01-31T08:12:39.890Z,100149.03
2023-01-31T08:15:26.415Z,100116.69
2023-01-31T08:18:13.010Z,100140.97
2023-01-31T08:20:59.783Z,100142.78
2023-01-31T08:23:46.949Z,100091.63
2023-01-31T08:26:33.398Z,100096.09
2023-01-31T08:29:20.162Z,100099.75
2023-01-31T08:32:06.792Z,100092.53
2023-01-31T08:34:52.964Z,100124.66
2023-01-31T08:37:39.286Z,100080.53
2023-01-31T08:40:25.752Z,100127.41
2023-01-31T08:43:12.316Z,100117.13
2023-01-31T08:45:58.925Z,100085.44
2023-01-31T08:48:45.207Z,100065.84
2023-01-31T08:51:32.436Z,100068.91
2023-01-31T08:54:19.094Z,100068.47
2023-01-31T08:57:05.396Z,100080.03
2023-01-31T08:59:51.642Z,100077.69
2023-01-31T09:02:38.019Z,100115.56
2023-01-31T09:05:26.948Z,100113.81
2023-01-31T09:08:13.504Z,100110.69
2023-01-31T09:11:02.559Z,100126.59
2023-01-31T09:13:51.703Z,100130.94
2023-01-31T09:16:39.020Z,100097.31
2023-01-31T09:19:25.488Z,100109.06
2023-01-31T09:22:11.920Z,100074.44
2023-01-31T09:24:58.028Z,100062.56
2023-01-31T09:27:44.355Z,100069.69
2023-01-31T09:30:31.008Z,100082.66
2023-01-31T09:33:17.129Z,100081.34
2023-01-31T09:36:07.021Z,100085.78
2023-01-31T09:38:57.341Z,100089.03
2023-01-31T09:42:01.238Z,100093.59
2023-01-31T09:45:01.730Z,100078.91
2023-01-31T09:47:52.324Z,100095.69
2023-01-31T09:50:51.874Z,100095.78
2023-01-31T09:53:41.104Z,100088.34
2023-01-31T09:56:42.606Z,100106.16
2023-01-31T09:59:40.366Z,100083.84
2023-01-31T10:03:18.249Z,100106.81
2023-01-31T10:06:13.767Z,100095.72
2023-01-31T10:09:16.075Z,100105.25
2023-01-31T10:12:11.607Z,100114.50
2023-01-31T10:15:02.919Z,100092.72
2023-01-31T10:17:56.983Z,100106.97
2023-01-31T10:20:50.235Z,100104.03
2023-01-31T10:24:03.423Z,100098.56
2023-01-31T10:26:55.005Z,100104.03
2023-01-31T10:29:47.670Z,100098.63
2023-01-31T10:32:40.116Z,100089.47
2023-01-31T10:35:34.362Z,100066.28
2023-01-31T10:38:41.879Z,100099.00
2023-01-31T10:41:54.528Z,100107.88
2023-01-31T10:44:52.655Z,100103.72
2023-01-31T10:47:47.480Z,100098.94
2023-01-31T10:51:00.672Z,100092.53
2023-01-31T10:53:54.177Z,100089.94
2023-01-31T10:56:47.233Z,100096.81
2023-01-31T10:59:38.341Z,100045.88
2023-01-31T11:02:27.582Z,100071.19
2023-01-31T11:05:18.796Z,100092.91
2023-01-31T11:08:23.527Z,100073.72
2023-01-31T11:11:17.013Z,100066.59
2023-01-31T11:14:07.046Z,100051.78
2023-01-31T11:17:00.540Z,100012.06
2023-01-31T11:19:52.886Z,100009.34
2023-01-31T11:22:39.944Z,100022.09
2023-01-31T11:25:27.318Z,100020.13
2023-01-31T11:28:24.314Z,100003.56
2023-01-31T11:31:34.516Z,99989.53
2023-01-31T11:34:27.211Z,99979.63
2023-01-31T11:37:18.346Z,100006.53
2023-01-31T11:40:19.715Z,100017.75
2023-01-31T11:43:23.929Z,100020.69
2023-01-31T11:46:10.588Z,99998.13
2023-01-31T11:48:57.801Z,100013.47
2023-01-31T11:51:45.176Z,100005.78
2023-01-31T11:54:34.154Z,99992.06
2023-01-31T11:57:28.733Z,100002.34
2023-01-31T12:00:28.107Z,100001.81
2023-01-31T12:03:17.771Z,99988.72
2023-01-31T12:06:09.369Z,99985.81
2023-01-31T12:08:57.694Z,99946.06
2023-01-31T12:12:02.595Z,99976.72
2023-01-31T12:14:48.853Z,99964.06
2023-01-31T12:17:47.694Z,99931.38
2023-01-31T12:20:48.800Z,99917.13
2023-01-31T12:23:46.479Z,99914.84
2023-01-31T12:26:39.016Z,99925.41
2023-01-31T12:29:44.216Z,99954.19
2023-01-31T12:32:52.093Z,99949.31
2023-01-31T12:35:41.648Z,99933.75
2023-01-31T12:38:56.639Z,99878.63
2023-01-31T12:41:53.156Z,99908.31
2023-01-31T12:44:49.988Z,99927.81
2023-01-31T12:48:11.999Z,99895.59
2023-01-31T12:51:04.609Z,99915.31
2023-01-31T12:54:00.501Z,99885.59
2023-01-31T12:57:15.911Z,99880.34
2023-01-31T13:00:10.880Z,99853.03
2023-01-31T13:03:28.490Z,99892.47
2023-01-31T13:06:18.460Z,99895.50
2023-01-31T13:09:13.353Z,99890.09
2023-01-31T13:12:08.817Z,99877.34
2023-01-31T13:15:04.227Z,99880.66
2023-01-31T13:17:55.080Z,99875.22
2023-01-31T13:20:52.291Z,99854.41
2023-01-31T13:23:43.982Z,99842.22
2023-01-31T13:26:38.160Z,99859.03
2023-01-31T13:29:37.022Z,99875.19
2023-01-31T13:32:45.206Z,99826.09
2023-01-31T13:35:40.865Z,99881.38
2023-01-31T13:38:34.931Z,99878.34
2023-01-31T13:41:32.529Z,99868.31
2023-01-31T13:44:20.844Z,99852.53
2023-01-31T13:47:21.262Z,99840.66
2023-01-31T13:50:32.871Z,99867.00
2023-01-31T13:53:30.687Z,99819.78
2023-01-31T13:56:30.411Z,99868.78
2023-01-31T13:59:22.904Z,99846.91
2023-01-31T14:02:18.470Z,99827.53
2023-01-31T14:05:09.218Z,99834.44
2023-01-31T14:08:29.881Z,99841.50
2023-01-31T14:11:21.911Z,99832.81
2023-01-31T14:14:37.270Z,99842.88
2023-01-31T14:17:23.576Z,99841.94
2023-01-31T14:20:31.231Z,99846.34
2023-01-31T14:23:31.338Z,99825.78
2023-01-31T14:26:43.139Z,99810.28
2023-01-31T14:29:31.761Z,99787.56
2023-01-31T14:32:49.934Z,99825.78
2023-01-31T14:36:16.574Z,99821.13
2023-01-31T14:39:18.657Z,99789.81
2023-01-31T14:42:39.002Z,99829.81
2023-01-31T14:45:47.110Z,99837.34
2023-01-31T14:48:42.314Z,99847.59
2023-01-31T14:51:53.032Z,99796.50
2023-01-31T14:55:03.419Z,99841.19
2023-01-31T14:57:53.493Z,99839.16
2023-01-31T15:00:48.841Z,99831.22
2023-01-31T15:03:38.752Z,99805.94
2023-01-31T15:06:28.807Z,99857.75
2023-01-31T15:09:21.530Z,99848.13
2023-01-31T15:12:46.599Z,99849.91
2023-01-31T15:15:40.251Z,99853.25
2023-01-31T15:18:29.162Z,99837.06
2023-01-31T15:21:23.177Z,99807.72
2023-01-31T15:24:19.532Z,99808.38
2023-01-31T15:27:28.750Z,99815.16
2023-01-31T15:30:21.256Z,99806.75
2023-01-31T15:33:22.218Z,99818.06
2023-01-31T15:36:19.729Z,99796.06
2023-01-31T15:39:19.696Z,99849.03
2023-01-31T15:42:29.345Z,99848.09
2023-01-31T15:45:30.347Z,99791.53
2023-01-31T15:48:19.226Z,99844.31
2023-01-31T15:51:05.718Z,99826.03
2023-01-31T15:54:06.299Z,99817.28
2023-01-31T15:56:52.483Z,99842.47
2023-01-31T15:59:38.922Z,99784.69
2023-01-31T16:02:33.431Z,99831.59
2023-01-31T16:05:22.274Z,99860.38
2023-01-31T16:08:27.002Z,99859.66
2023-01-31T16:11:13.667Z,99838.97
2023-01-31T16:14:02.810Z,99835.41
2023-01-31T16:16:52.551Z,99816.88
2023-01-31T16:19:38.884Z,99851.56
2023-01-31T16:22:30.180Z,99846.53
2023-01-31T16:25:19.002Z,99852.41
2023-01-31T16:28:12.111Z,99854.94
2023-01-31T16:31:13.777Z,99857.41
2023-01-31T16:34:04.573Z,99807.84
2023-01-31T16:36:50.831Z,99860.94
2023-01-31T16:39:47.199Z,99788.59
2023-01-31T16:42:36.222Z,99838.53
2023-01-31T16:45:33.449Z,99862.78
2023-01-31T16:48:22.165Z,99837.50
2023-01-31T16:51:30.275Z,99860.91
2023-01-31T16:54:25.589Z,99837.38
2023-01-31T16:57:38.392Z,99862.78
2023-01-31T17:00:25.460Z,99865.31
2023-01-31T17:03:19.555Z,99796.56
2023-01-31T17:06:07.122Z,99872.44
2023-01-31T17:08:53.733Z,99836.13
2023-01-31T17:11:43.328Z,99844.53
2023-01-31T17:14:29.972Z,99829.69
2023-01-31T17:17:21.923Z,99864.59
2023-01-31T17:20:09.669Z,99877.16
2023-01-31T17:23:02.644Z,99868.50
2023-01-31T17:25:49.827Z,99849.41
2023-01-31T17:28:36.087Z,99851.16
2023-01-31T17:31:24.808Z,99886.72
2023-01-31T17:34:13.772Z,99840.94
2023-01-31T17:37:00.040Z,99842.59
2023-01-31T17:39:46.534Z,99853.72
2023-01-31T17:42:33.074Z,99876.41
2023-01-31T17:45:19.891Z,99864.38
2023-01-31T17:48:07.818Z,99837.38
2023-01-31T17:50:56.032Z,99836.66
2023-01-31T17:53:50.014Z,99814.88
2023-01-31T17:56:37.259Z,99843.72
2023-01-31T17:59:27.299Z,99743.06
2023-01-31T18:02:13.785Z,99785.69
2023-01-31T18:05:00.277Z,99788.22
2023-01-31T18:07:48.995Z,99810.41
2023-01-31T18:10:35.526Z,99841.72
2023-01-31T18:13:21.806Z,99837.59
2023-01-31T18:16:14.674Z,99822.97
2023-01-31T18:19:01.046Z,99851.44
2023-01-31T18:21:54.947Z,99818.56
2023-01-31T18:24:42.332Z,99843.81
2023-01-31T18:27:28.575Z,99826.47
2023-01-31T18:30:15.159Z,99830.16
2023-01-31T18:33:01.306Z,99816.72
2023-01-31T18:35:56.482Z,99806.44
2023-01-31T18:38:44.644Z,99832.72
2023-01-31T18:41:31.056Z,99815.25
2023-01-31T18:44:17.339Z,99843.22
2023-01-31T18:47:03.726Z,99802.03
2023-01-31T18:49:50.066Z,99805.09
2023-01-31T18:52:36.656Z,99695.44
2023-01-31T18:55:23.245Z,99806.69
2023-01-31T18:58:09.785Z,99808.75
2023-01-31T19:01:03.083Z,99808.13
2023-01-31T19:03:52.829Z,99792.03
2023-01-31T19:06:41.045Z,99775.75
2023-01-31T19:09:27.516Z,99832.06
2023-01-31T19:12:13.706Z,99812.09
2023-01-31T19:15:00.190Z,99777.06
2023-01-31T19:17:46.640Z,99803.41
2023-01-31T19:20:33.129Z,99832.81
2023-01-31T19:23:19.668Z,99805.09
2023-01-31T19:26:06.153Z,99812.97
2023-01-31T19:28:53.359Z,99828.69
2023-01-31T19:31:39.865Z,99807.66
2023-01-31T19:34:26.561Z,99774.72
2023-01-31T19:37:13.277Z,99783.53
2023-01-31T19:39:59.947Z,99791.03
2023-01-31T19:42:46.504Z,99766.66
2023-01-31T19:45:33.000Z,99774.78
2023-01-31T19:48:19.930Z,99786.25
2023-01-31T19:51:15.381Z,99787.06
2023-01-31T19:54:02.773Z,99767.97
2023-01-31T19:56:49.335Z,99769.59
2023-01-31T19:59:36.170Z,99771.38
2023-01-31T20:02:22.637Z,99746.13
2023-01-31T20:05:10.672Z,99792.09
2023-01-31T20:07:57.265Z,99773.31
2023-01-31T20:10:43.551Z,99794.63
2023-01-31T20:13:30.159Z,99770.28
2023-01-31T20:16:16.874Z,99758.31
2023-01-31T20:19:04.253Z,99815.94
2023-01-31T20:21:50.690Z,99761.97
2023-01-31T20:24:37.068Z,99716.47
2023-01-31T20:27:26.456Z,99755.66
2023-01-31T20:30:12.864Z,99795.59
2023-01-31T20:32:58.955Z,99776.56
2023-01-31T20:35:46.301Z,99800.13
2023-01-31T20:38:33.097Z,99777.41
2023-01-31T20:41:19.814Z,99759.75
2023-01-31T20:44:06.290Z,99797.28
2023-01-31T20:46:52.958Z,99779.19
2023-01-31T20:49:39.152Z,99784.56
2023-01-31T20:52:25.608Z,99785.81
2023-01-31T20:55:11.873Z,99780.44
2023-01-31T20:57:58.463Z,99766.31
2023-01-31T21:00:45.136Z,99791.28
2023-01-31T21:03:31.826Z,99769.31
2023-01-31T21:06:17.983Z,99801.78
2023-01-31T21:09:04.656Z,99775.94
2023-01-31T21:11:51.087Z,99761.63
2023-01-31T21:14:37.940Z,99739.03
2023-01-31T21:17:37.829Z,99743.44
2023-01-31T21:20:25.559Z,99741.28
2023-01-31T21:23:12.068Z,99741.16
2023-01-31T21:26:02.936Z,99768.91
2023-01-31T21:28:49.581Z,99755.94
2023-01-31T21:31:36.265Z,99741.81
2023-01-31T21:34:26.954Z,99775.94
2023-01-31T21:37:13.493Z,99776.91
2023-01-31T21:39:59.798Z,99773.09
2023-01-31T21:42:49.604Z,99770.47
2023-01-31T21:45:42.312Z,99806.91
2023-01-31T21:48:32.021Z,99782.56
2023-01-31T21:51:22.093Z,99813.91
2023-01-31T21:54:08.800Z,99789.56
2023-01-31T21:56:54.935Z,99763.59
2023-01-31T21:59:42.739Z,99767.97
2023-01-31T22:02:30.710Z,99792.16
2023-01-31T22:05:17.119Z,99791.84
2023-01-31T22:08:03.367Z,99810.16
2023-01-31T22:10:49.663Z,99795.22
2023-01-31T22:13:36.654Z,99763.84
2023-01-31T22:16:23.066Z,99806.28
2023-01-31T22:19:14.024Z,99794.41
2023-01-31T22:22:00.251Z,99826.44
2023-01-31T22:24:46.402Z,99781.41
2023-01-31T22:27:32.887Z,99810.84
2023-01-31T22:30:19.387Z,99805.72
2023-01-31T22:33:05.612Z,99801.28
2023-01-31T22:35:51.777Z,99755.41
2023-01-31T22:38:38.753Z,99771.03
2023-01-31T22:41:25.054Z,99746.94
2023-01-31T22:44:11.389Z,99771.75
2023-01-31T22:46:57.672Z,99780.72
2023-01-31T22:49:44.327Z,99720.47
2023-01-31T22:52:30.717Z,99759.28
2023-01-31T22:55:17.342Z,99793.84
2023-01-31T22:58:03.770Z,99772.97
2023-01-31T23:00:50.414Z,99756.47
2023-01-31T23:03:36.658Z,99769.69
2023-01-31T23:06:22.851Z,99777.44
2023-01-31T23:09:09.096Z,99731.22
2023-01-31T23:11:55.283Z,99731.09
2023-01-31T23:14:41.707Z,99711.81
2023-01-31T23:17:37.424Z,99762.63
2023-01-31T23:20:24.114Z,99731.13
2023-01-31T23:23:10.780Z,99724.38
2023-01-31T23:25:57.251Z,99722.66
2023-01-31T23:28:43.723Z,99750.13
2023-01-31T23:31:32.233Z,99711.34
2023-01-31T23:34:19.007Z,99697.28
2023-01-31T23:37:05.157Z,99736.38
2023-01-31T23:39:51.803Z,99727.16
2023-01-31T23:42:38.503Z,99696.41
2023-01-31T23:45:24.983Z,99742.41
2023-01-31T23:48:11.628Z,99730.19
2023-01-31T23:51:03.285Z,99730.47
2023-01-31T23:53:49.775Z,99753.44
2023-01-31T23:56:36.644Z,99745.97
2023-01-31T23:59:23.074Z,99693.13
